createdAt,value
2022-09-21T11:40:10.376Z,101002.50
2022-09-21T11:43:07.151Z,101168.19
2022-09-21T11:45:57.488Z,101097.69
2022-09-21T11:49:03.151Z,101004.50
2022-09-21T11:52:04.753Z,101069.13
2022-09-21T11:55:23.263Z,101016.53
2022-09-21T11:58:19.686Z,100849.72
2022-09-21T12:01:31.921Z,101009.03
2022-09-21T12:04:36.134Z,100986.47
2022-09-21T12:07:38.955Z,100971.88
2022-09-21T12:10:37.634Z,100891.03
2022-09-21T12:13:20.765Z,100758.66
2022-09-21T12:16:16.323Z,101027.72
2022-09-21T12:18:53.207Z,101010.50
2022-09-21T12:21:30.600Z,100981.63
2022-09-21T12:24:05.604Z,100939.16
2022-09-21T12:26:50.322Z,100898.59
2022-09-21T12:29:36.981Z,100950.56
2022-09-21T12:32:33.622Z,100891.75
2022-09-21T12:35:06.423Z,100794.75
2022-09-21T12:37:49.690Z,100807.50
2022-09-21T12:41:05.382Z,100776.53
2022-09-21T12:43:50.430Z,100783.47
2022-09-21T12:46:30.921Z,100845.72
2022-09-21T12:49:05.823Z,100678.41
2022-09-21T12:51:43.352Z,100674.47
2022-09-21T12:54:26.850Z,100671.91
2022-09-21T12:57:38.119Z,100715.44
2022-09-21T13:00:11.049Z,100691.47
2022-09-21T13:02:49.748Z,100700.31
2022-09-21T13:05:44.013Z,100732.75
2022-09-21T13:08:21.498Z,100519.59
2022-09-21T13:11:05.090Z,100772.59
2022-09-21T13:14:00.545Z,100713.22
2022-09-21T13:16:31.507Z,100723.00
2022-09-21T13:19:05.665Z,100747.72
2022-09-21T13:21:34.052Z,100631.94
2022-09-21T13:24:04.456Z,100761.75
2022-09-21T13:26:54.384Z,100680.78
2022-09-21T13:30:22.752Z,100488.50
2022-09-21T13:32:52.766Z,100500.22
2022-09-21T13:35:54.864Z,100506.34
2022-09-21T13:38:26.646Z,100488.06
2022-09-21T13:41:18.606Z,100443.06
2022-09-21T13:44:01.144Z,100431.25
2022-09-21T13:46:35.311Z,100518.44
2022-09-21T13:49:12.513Z,100538.53
2022-09-21T13:52:05.659Z,100525.13
2022-09-21T13:54:50.892Z,100422.19
2022-09-21T13:57:42.064Z,100431.06
2022-09-21T14:00:43.605Z,100329.53
2022-09-21T14:03:37.306Z,100575.22
2022-09-21T14:06:17.984Z,100469.53
2022-09-21T14:09:09.208Z,100521.56
2022-09-21T14:11:41.711Z,100488.63
2022-09-21T14:14:44.703Z,100433.00
2022-09-21T14:17:41.322Z,100449.81
2022-09-21T14:20:39.147Z,100371.19
2022-09-21T14:23:29.159Z,100419.31
2022-09-21T14:26:01.884Z,100186.25
2022-09-21T14:28:52.288Z,100146.38
2022-09-21T14:31:33.601Z,100246.66
2022-09-21T14:34:05.208Z,100257.00
2022-09-21T14:36:50.782Z,100197.69
2022-09-21T14:39:39.364Z,100220.13
2022-09-21T14:42:19.504Z,100227.88
2022-09-21T14:44:51.785Z,100353.66
2022-09-21T14:47:44.930Z,100130.94
2022-09-21T14:50:38.396Z,100212.88
2022-09-21T14:53:52.478Z,100117.66
2022-09-21T14:56:34.993Z,100108.84
2022-09-21T14:59:48.177Z,100233.16
2022-09-21T15:02:28.138Z,100171.09
2022-09-21T15:05:24.420Z,100158.03
2022-09-21T15:08:32.598Z,100225.75
2022-09-21T15:11:25.159Z,100107.34
2022-09-21T15:14:21.358Z,100125.25
2022-09-21T15:16:51.784Z,100122.09
2022-09-21T15:19:29.487Z,100127.50
2022-09-21T15:22:21.041Z,100152.34
2022-09-21T15:24:55.734Z,100177.06
2022-09-21T15:27:29.140Z,100241.56
2022-09-21T15:29:57.257Z,100220.13
2022-09-21T15:32:41.685Z,100143.50
2022-09-21T15:35:35.070Z,100076.59
2022-09-21T15:38:02.892Z,100014.13
2022-09-21T15:40:36.348Z,99997.81
2022-09-21T15:43:20.110Z,99932.94
2022-09-21T15:46:00.818Z,99964.91
2022-09-21T15:48:39.817Z,99975.75
2022-09-21T15:51:24.728Z,99890.25
2022-09-21T15:54:32.315Z,99875.31
2022-09-21T15:57:25.524Z,99929.38
2022-09-21T15:59:54.068Z,99837.72
2022-09-21T16:02:25.793Z,99880.81
2022-09-21T16:04:53.972Z,99953.50
2022-09-21T16:07:33.082Z,99891.50
2022-09-21T16:10:03.696Z,99863.31
2022-09-21T16:12:41.136Z,99896.06
2022-09-21T16:15:32.082Z,99801.84
2022-09-21T16:18:03.560Z,99800.53
2022-09-21T16:20:39.042Z,99792.25
2022-09-21T16:23:20.171Z,99856.84
2022-09-21T16:26:00.758Z,99960.44
2022-09-21T16:28:39.487Z,100022.47
2022-09-21T16:31:36.419Z,99984.44
2022-09-21T16:34:21.927Z,100007.63
2022-09-21T16:39:34.371Z,99940.47
2022-09-21T16:42:04.494Z,99826.88
2022-09-21T16:44:40.232Z,99893.84
2022-09-21T16:47:18.444Z,99815.38
2022-09-21T16:49:46.407Z,99822.22
2022-09-21T16:52:17.000Z,99808.34
2022-09-21T16:54:45.462Z,99767.63
2022-09-21T16:57:14.413Z,99808.13
2022-09-21T16:59:43.029Z,99822.44
2022-09-21T17:02:14.206Z,99834.53
2022-09-21T17:04:42.655Z,99881.59
2022-09-21T17:07:14.829Z,99970.59
2022-09-21T17:09:46.560Z,99887.41
2022-09-21T17:12:18.260Z,99894.31
2022-09-21T17:14:47.396Z,99947.47
2022-09-21T17:17:24.268Z,99992.94
2022-09-21T17:19:54.151Z,100048.47
2022-09-21T17:22:22.537Z,100052.91
2022-09-21T17:24:52.460Z,100059.47
2022-09-21T17:27:24.252Z,100088.19
2022-09-21T17:29:54.355Z,100069.13
2022-09-21T17:32:24.687Z,100118.22
2022-09-21T17:35:19.263Z,100135.31
2022-09-21T17:37:47.204Z,100130.13
2022-09-21T17:40:15.784Z,100146.34
2022-09-21T17:42:48.739Z,100169.75
2022-09-21T17:45:59.376Z,100164.22
2022-09-21T17:48:33.180Z,100205.91
2022-09-21T17:51:02.683Z,100248.50
2022-09-21T17:53:34.656Z,100233.78
2022-09-21T17:56:40.732Z,100276.31
2022-09-21T17:59:27.918Z,100264.88
2022-09-21T18:01:59.774Z,100274.75
2022-09-21T18:04:34.872Z,100259.00
2022-09-21T18:07:03.265Z,100266.09
2022-09-21T18:09:31.476Z,100274.03
2022-09-21T18:12:48.254Z,100278.53
2022-09-21T18:15:40.814Z,100319.41
2022-09-21T18:18:43.101Z,100356.69
2022-09-21T18:21:21.050Z,100380.59
2022-09-21T18:24:20.790Z,100387.72
2022-09-21T18:26:50.035Z,100375.34
2022-09-21T18:29:41.642Z,100424.03
2022-09-21T18:32:31.590Z,100468.25
2022-09-21T18:35:26.065Z,100470.91
2022-09-21T18:38:32.288Z,100490.34
2022-09-21T18:41:21.468Z,100496.47
2022-09-21T18:44:10.345Z,100492.84
2022-09-21T18:47:02.889Z,100522.88
2022-09-21T18:49:51.378Z,100545.81
2022-09-21T18:52:46.612Z,100551.09
2022-09-21T18:55:27.858Z,100558.97
2022-09-21T18:57:57.460Z,100583.78
2022-09-21T19:00:31.336Z,100581.97
2022-09-21T19:03:29.163Z,100598.53
2022-09-21T19:06:39.628Z,100616.06
2022-09-21T19:09:44.450Z,100631.13
2022-09-21T19:12:52.958Z,100632.75
2022-09-21T19:16:00.345Z,100639.00
2022-09-21T19:18:54.306Z,100627.25
2022-09-21T19:21:38.589Z,100659.84
2022-09-21T19:24:33.063Z,100666.06
2022-09-21T19:27:51.011Z,100678.19
2022-09-21T19:30:19.443Z,100686.78
2022-09-21T19:33:00.789Z,100707.94
2022-09-21T19:35:33.613Z,100715.88
2022-09-21T19:38:04.112Z,100721.25
2022-09-21T19:40:35.536Z,100721.91
2022-09-21T19:43:40.404Z,100727.13
2022-09-21T19:46:23.048Z,100733.50
2022-09-21T19:48:59.736Z,100725.53
2022-09-21T19:51:53.562Z,100714.75
2022-09-21T19:54:43.094Z,100728.91
2022-09-21T19:57:34.802Z,100725.03
2022-09-21T20:00:05.688Z,100740.03
2022-09-21T20:02:40.570Z,100737.69
2022-09-21T20:05:16.347Z,100735.78
2022-09-21T20:07:51.928Z,100733.81
2022-09-21T20:10:51.594Z,100738.94
2022-09-21T20:14:00.178Z,100753.59
2022-09-21T20:16:48.018Z,100766.31
2022-09-21T20:19:58.373Z,100768.00
2022-09-21T20:22:40.639Z,100766.34
2022-09-21T20:25:37.887Z,100762.59
2022-09-21T20:28:07.171Z,100757.47
2022-09-21T20:30:39.741Z,100755.56
2022-09-21T20:33:15.305Z,100763.34
2022-09-21T20:35:44.102Z,100770.19
2022-09-21T20:38:12.267Z,100785.22
2022-09-21T20:40:41.250Z,100781.16
2022-09-21T20:43:10.160Z,100789.19
2022-09-21T20:45:40.872Z,100788.16
2022-09-21T20:48:15.750Z,100779.56
2022-09-21T20:50:48.984Z,100783.19
2022-09-21T20:53:19.723Z,100792.59
2022-09-21T20:55:57.514Z,100809.50
2022-09-21T20:58:25.638Z,100797.47
2022-09-21T21:00:58.866Z,100790.13
2022-09-21T21:03:27.629Z,100796.19
2022-09-21T21:06:11.986Z,100804.63
2022-09-21T21:08:40.296Z,100809.63
2022-09-21T21:11:08.482Z,100811.75
2022-09-21T21:13:37.078Z,100805.94
2022-09-21T21:16:11.572Z,100789.31
2022-09-21T21:18:41.814Z,100782.91
2022-09-21T21:21:10.190Z,100783.66
2022-09-21T21:23:57.421Z,100785.00
2022-09-21T21:26:43.820Z,100797.28
2022-09-21T21:29:15.267Z,100803.19
2022-09-21T21:31:44.670Z,100814.81
2022-09-21T21:34:13.103Z,100811.97
2022-09-21T21:36:41.294Z,100816.38
2022-09-21T21:39:10.757Z,100821.25
2022-09-21T21:41:38.807Z,100821.28
2022-09-21T21:44:06.802Z,100823.13
2022-09-21T21:46:34.832Z,100825.06
2022-09-21T21:49:02.851Z,100809.09
2022-09-21T21:51:31.257Z,100804.66
2022-09-21T21:53:59.343Z,100820.50
2022-09-21T21:56:27.413Z,100830.25
2022-09-21T21:58:56.504Z,100826.03
2022-09-21T22:01:28.186Z,100833.72
2022-09-21T22:04:01.719Z,100831.84
2022-09-21T22:06:32.231Z,100840.25
2022-09-21T22:09:01.668Z,100843.81
2022-09-21T22:11:31.032Z,100847.97
2022-09-21T22:14:01.567Z,100854.75
2022-09-21T22:16:32.384Z,100863.44
2022-09-21T22:19:07.900Z,100857.34
2022-09-21T22:21:53.200Z,100862.69
2022-09-21T22:24:24.072Z,100865.78
2022-09-21T22:26:52.109Z,100863.25
2022-09-21T22:29:20.364Z,100867.63
2022-09-21T22:31:50.219Z,100864.28
2022-09-21T22:34:20.382Z,100867.03
2022-09-21T22:36:48.472Z,100873.13
2022-09-21T22:39:16.329Z,100868.81
2022-09-21T22:41:44.680Z,100873.38
2022-09-21T22:44:12.555Z,100872.81
2022-09-21T22:46:40.665Z,100891.06
2022-09-21T22:49:08.897Z,100893.72
2022-09-21T22:51:38.171Z,100898.00
2022-09-21T22:54:06.557Z,100910.66
2022-09-21T22:56:34.863Z,100917.44
2022-09-21T22:59:05.072Z,100930.28
2022-09-21T23:01:37.979Z,100932.84
2022-09-21T23:04:12.471Z,100936.31
2022-09-21T23:06:43.629Z,100943.34
2022-09-21T23:09:19.646Z,100944.06
2022-09-21T23:11:53.490Z,100954.72
2022-09-21T23:14:23.122Z,100961.13
2022-09-21T23:16:51.254Z,100951.91
2022-09-21T23:19:19.121Z,100947.72
2022-09-21T23:21:49.911Z,100966.53
2022-09-21T23:24:19.176Z,100969.03
2022-09-21T23:26:47.873Z,100975.50
2022-09-21T23:29:16.649Z,100984.09
2022-09-21T23:31:46.248Z,100984.50
2022-09-21T23:34:15.768Z,100984.53
2022-09-21T23:36:44.986Z,100989.31
2022-09-21T23:39:14.835Z,100999.84
2022-09-21T23:41:43.885Z,101008.31
2022-09-21T23:44:12.095Z,101013.91
2022-09-21T23:46:41.164Z,101023.03
2022-09-21T23:49:09.787Z,101033.50
2022-09-21T23:51:38.854Z,101042.84
2022-09-21T23:54:07.672Z,101033.00
2022-09-21T23:56:36.050Z,101040.75
2022-09-21T23:59:04.321Z,101038.66
